sensor_id;sensor_type;location;lat;lon;timestamp;P1;durP1;ratioP1;P2;durP2;ratioP2
44572;SDS011;31762;45.420;10.072;2022-11-15T00:04:00;10.90;;;8.17;;
44572;SDS011;31762;45.420;10.072;2022-11-15T00:09:02;13.17;;;8.53;;
44572;SDS011;31762;45.420;10.072;2022-11-15T00:14:04;11.07;;;7.77;;
44572;SDS011;31762;45.420;10.072;2022-11-15T00:19:06;11.88;;;8.50;;
44572;SDS011;31762;45.420;10.072;2022-11-15T00:24:08;14.90;;;10.13;;
44572;SDS011;31762;45.420;10.072;2022-11-15T00:29:10;13.90;;;9.30;;
44572;SDS011;31762;45.420;10.072;2022-11-15T00:34:11;13.30;;;9.87;;
44572;SDS011;31762;45.420;10.072;2022-11-15T00:39:13;19.73;;;10.45;;
44572;SDS011;31762;45.420;10.072;2022-11-15T00:44:15;13.77;;;8.88;;
44572;SDS011;31762;45.420;10.072;2022-11-15T00:49:16;13.55;;;9.27;;
44572;SDS011;31762;45.420;10.072;2022-11-15T00:54:18;14.23;;;8.70;;
44572;SDS011;31762;45.420;10.072;2022-11-15T00:59:20;13.95;;;8.50;;
44572;SDS011;31762;45.420;10.072;2022-11-15T01:04:22;13.10;;;8.43;;
44572;SDS011;31762;45.420;10.072;2022-11-15T01:09:23;12.95;;;8.68;;
44572;SDS011;31762;45.420;10.072;2022-11-15T01:14:25;14.67;;;10.10;;
44572;SDS011;31762;45.420;10.072;2022-11-15T01:19:27;13.40;;;9.32;;
44572;SDS011;31762;45.420;10.072;2022-11-15T01:24:29;17.10;;;7.03;;
44572;SDS011;31762;45.420;10.072;2022-11-15T01:29:31;8.03;;;6.23;;
44572;SDS011;31762;45.420;10.072;2022-11-15T01:34:32;12.85;;;7.13;;
44572;SDS011;31762;45.420;10.072;2022-11-15T01:39:34;11.32;;;7.05;;
44572;SDS011;31762;45.420;10.072;2022-11-15T01:44:49;10.45;;;6.68;;
44572;SDS011;31762;45.420;10.072;2022-11-15T01:49:54;8.60;;;6.05;;
44572;SDS011;31762;45.420;10.072;2022-11-15T01:55:04;9.38;;;6.75;;
44572;SDS011;31762;45.420;10.072;2022-11-15T02:00:14;7.38;;;6.35;;
44572;SDS011;31762;45.420;10.072;2022-11-15T02:05:17;7.33;;;5.53;;
44572;SDS011;31762;45.420;10.072;2022-11-15T02:10:20;8.10;;;6.20;;
44572;SDS011;31762;45.420;10.072;2022-11-15T02:15:24;10.65;;;6.70;;
44572;SDS011;31762;45.420;10.072;2022-11-15T02:20:47;7.27;;;6.00;;
44572;SDS011;31762;45.420;10.072;2022-11-15T02:42:53;6.57;;;4.90;;
44572;SDS011;31762;45.420;10.072;2022-11-15T02:48:08;11.52;;;5.20;;
44572;SDS011;31762;45.420;10.072;2022-11-15T02:53:11;7.37;;;5.50;;
44572;SDS011;31762;45.420;10.072;2022-11-15T03:09:04;7.57;;;4.90;;
44572;SDS011;31762;45.420;10.072;2022-11-15T03:20:11;8.52;;;5.32;;
44572;SDS011;31762;45.420;10.072;2022-11-15T03:25:18;7.47;;;5.57;;
44572;SDS011;31762;45.420;10.072;2022-11-15T03:30:24;5.95;;;5.22;;
44572;SDS011;31762;45.420;10.072;2022-11-15T03:35:30;7.78;;;5.30;;
44572;SDS011;31762;45.420;10.072;2022-11-15T03:40:39;7.30;;;5.18;;
44572;SDS011;31762;45.420;10.072;2022-11-15T03:45:56;6.07;;;4.90;;
44572;SDS011;31762;45.420;10.072;2022-11-15T03:51:03;6.17;;;5.40;;
44572;SDS011;31762;45.420;10.072;2022-11-15T03:56:05;6.57;;;4.55;;
44572;SDS011;31762;45.420;10.072;2022-11-15T04:01:07;6.30;;;4.72;;
44572;SDS011;31762;45.420;10.072;2022-11-15T04:06:09;4.97;;;4.40;;
44572;SDS011;31762;45.420;10.072;2022-11-15T04:11:11;5.00;;;4.18;;
44572;SDS011;31762;45.420;10.072;2022-11-15T04:16:13;5.13;;;4.63;;
44572;SDS011;31762;45.420;10.072;2022-11-15T04:21:14;4.90;;;4.40;;
44572;SDS011;31762;45.420;10.072;2022-11-15T04:26:19;5.13;;;4.63;;
44572;SDS011;31762;45.420;10.072;2022-11-15T04:31:23;6.27;;;4.63;;
44572;SDS011;31762;45.420;10.072;2022-11-15T04:36:24;6.50;;;5.35;;
44572;SDS011;31762;45.420;10.072;2022-11-15T04:41:26;5.28;;;4.78;;
44572;SDS011;31762;45.420;10.072;2022-11-15T04:46:28;6.15;;;4.72;;
44572;SDS011;31762;45.420;10.072;2022-11-15T04:51:29;6.77;;;4.97;;
44572;SDS011;31762;45.420;10.072;2022-11-15T04:56:31;9.15;;;4.55;;
44572;SDS011;31762;45.420;10.072;2022-11-15T05:01:33;5.28;;;4.78;;
44572;SDS011;31762;45.420;10.072;2022-11-15T05:06:35;4.97;;;4.33;;
44572;SDS011;31762;45.420;10.072;2022-11-15T05:11:37;5.88;;;4.68;;
44572;SDS011;31762;45.420;10.072;2022-11-15T05:16:39;6.25;;;4.97;;
44572;SDS011;31762;45.420;10.072;2022-11-15T05:21:40;6.30;;;5.50;;
44572;SDS011;31762;45.420;10.072;2022-11-15T05:26:42;6.78;;;5.60;;
44572;SDS011;31762;45.420;10.072;2022-11-15T05:31:44;8.65;;;6.43;;
44572;SDS011;31762;45.420;10.072;2022-11-15T05:36:46;7.43;;;6.00;;
44572;SDS011;31762;45.420;10.072;2022-11-15T05:41:48;9.75;;;7.13;;
44572;SDS011;31762;45.420;10.072;2022-11-15T05:46:58;10.55;;;7.13;;
44572;SDS011;31762;45.420;10.072;2022-11-15T05:52:00;11.73;;;7.35;;
44572;SDS011;31762;45.420;10.072;2022-11-15T05:57:04;10.77;;;6.97;;
44572;SDS011;31762;45.420;10.072;2022-11-15T06:02:06;14.23;;;7.43;;
44572;SDS011;31762;45.420;10.072;2022-11-15T06:07:08;10.63;;;7.75;;
44572;SDS011;31762;45.420;10.072;2022-11-15T06:12:10;12.83;;;9.13;;
44572;SDS011;31762;45.420;10.072;2022-11-15T06:17:12;9.70;;;7.20;;
44572;SDS011;31762;45.420;10.072;2022-11-15T06:22:13;8.57;;;6.32;;
44572;SDS011;31762;45.420;10.072;2022-11-15T06:27:15;10.43;;;7.27;;
44572;SDS011;31762;45.420;10.072;2022-11-15T06:32:17;10.73;;;7.57;;
44572;SDS011;31762;45.420;10.072;2022-11-15T06:37:18;9.75;;;6.68;;
44572;SDS011;31762;45.420;10.072;2022-11-15T06:42:20;9.07;;;6.78;;
44572;SDS011;31762;45.420;10.072;2022-11-15T06:47:22;10.80;;;6.83;;
44572;SDS011;31762;45.420;10.072;2022-11-15T06:52:24;10.15;;;7.25;;
44572;SDS011;31762;45.420;10.072;2022-11-15T06:57:26;10.00;;;6.57;;
44572;SDS011;31762;45.420;10.072;2022-11-15T07:02:28;10.90;;;6.93;;
44572;SDS011;31762;45.420;10.072;2022-11-15T07:07:29;10.80;;;7.65;;
44572;SDS011;31762;45.420;10.072;2022-11-15T07:12:31;10.27;;;7.07;;
44572;SDS011;31762;45.420;10.072;2022-11-15T07:17:33;8.35;;;6.60;;
44572;SDS011;31762;45.420;10.072;2022-11-15T07:22:35;10.98;;;6.95;;
44572;SDS011;31762;45.420;10.072;2022-11-15T07:27:37;10.57;;;6.53;;
44572;SDS011;31762;45.420;10.072;2022-11-15T07:32:39;10.50;;;7.45;;
44572;SDS011;31762;45.420;10.072;2022-11-15T07:37:40;9.15;;;6.65;;
44572;SDS011;31762;45.420;10.072;2022-11-15T07:42:42;10.80;;;7.53;;
44572;SDS011;31762;45.420;10.072;2022-11-15T07:47:48;10.70;;;6.93;;
44572;SDS011;31762;45.420;10.072;2022-11-15T07:52:57;10.60;;;7.07;;
44572;SDS011;31762;45.420;10.072;2022-11-15T07:58:06;9.90;;;6.87;;
44572;SDS011;31762;45.420;10.072;2022-11-15T08:03:13;10.85;;;7.00;;
44572;SDS011;31762;45.420;10.072;2022-11-15T08:08:17;11.87;;;7.80;;
44572;SDS011;31762;45.420;10.072;2022-11-15T08:13:19;10.05;;;7.00;;
44572;SDS011;31762;45.420;10.072;2022-11-15T08:18:21;10.45;;;6.80;;
44572;SDS011;31762;45.420;10.072;2022-11-15T08:23:22;14.00;;;7.85;;
44572;SDS011;31762;45.420;10.072;2022-11-15T08:28:24;12.05;;;8.27;;
44572;SDS011;31762;45.420;10.072;2022-11-15T08:33:26;13.37;;;8.30;;
44572;SDS011;31762;45.420;10.072;2022-11-15T08:38:29;11.10;;;7.63;;
44572;SDS011;31762;45.420;10.072;2022-11-15T08:43:32;8.85;;;7.03;;
44572;SDS011;31762;45.420;10.072;2022-11-15T08:48:34;11.00;;;7.13;;
44572;SDS011;31762;45.420;10.072;2022-11-15T08:53:36;10.98;;;7.78;;
44572;SDS011;31762;45.420;10.072;2022-11-15T08:58:38;10.48;;;7.65;;
44572;SDS011;31762;45.420;10.072;2022-11-15T09:03:40;11.57;;;7.93;;
44572;SDS011;31762;45.420;10.072;2022-11-15T09:08:42;10.60;;;8.77;;
44572;SDS011;31762;45.420;10.072;2022-11-15T09:13:49;11.37;;;8.60;;
44572;SDS011;31762;45.420;10.072;2022-11-15T09:18:52;11.98;;;7.28;;
44572;SDS011;31762;45.420;10.072;2022-11-15T09:23:54;14.18;;;9.35;;
44572;SDS011;31762;45.420;10.072;2022-11-15T09:28:56;12.90;;;8.65;;
44572;SDS011;31762;45.420;10.072;2022-11-15T09:33:57;10.65;;;9.52;;
44572;SDS011;31762;45.420;10.072;2022-11-15T09:38:59;14.95;;;9.13;;
44572;SDS011;31762;45.420;10.072;2022-11-15T09:49:25;10.95;;;7.93;;
44572;SDS011;31762;45.420;10.072;2022-11-15T10:04:56;12.20;;;9.02;;
44572;SDS011;31762;45.420;10.072;2022-11-15T10:10:02;14.20;;;10.00;;
44572;SDS011;31762;45.420;10.072;2022-11-15T10:15:11;11.90;;;8.57;;
44572;SDS011;31762;45.420;10.072;2022-11-15T10:30:40;12.85;;;8.90;;
44572;SDS011;31762;45.420;10.072;2022-11-15T10:35:44;10.48;;;7.68;;
44572;SDS011;31762;45.420;10.072;2022-11-15T10:40:46;13.05;;;8.02;;
44572;SDS011;31762;45.420;10.072;2022-11-15T10:45:49;10.27;;;7.00;;
44572;SDS011;31762;45.420;10.072;2022-11-15T10:50:52;12.07;;;7.30;;
44572;SDS011;31762;45.420;10.072;2022-11-15T10:55:58;11.77;;;7.40;;
44572;SDS011;31762;45.420;10.072;2022-11-15T11:01:08;13.05;;;7.97;;
44572;SDS011;31762;45.420;10.072;2022-11-15T11:06:17;11.52;;;7.93;;
44572;SDS011;31762;45.420;10.072;2022-11-15T11:11:20;12.10;;;8.33;;
44572;SDS011;31762;45.420;10.072;2022-11-15T11:16:30;11.85;;;7.93;;
44572;SDS011;31762;45.420;10.072;2022-11-15T11:54:59;11.13;;;7.05;;
44572;SDS011;31762;45.420;10.072;2022-11-15T12:00:20;9.27;;;6.63;;
44572;SDS011;31762;45.420;10.072;2022-11-15T12:05:59;11.82;;;8.20;;
44572;SDS011;31762;45.420;10.072;2022-11-15T12:11:19;11.90;;;7.25;;
44572;SDS011;31762;45.420;10.072;2022-11-15T12:16:29;12.03;;;7.33;;
44572;SDS011;31762;45.420;10.072;2022-11-15T12:21:47;12.90;;;7.05;;
44572;SDS011;31762;45.420;10.072;2022-11-15T12:33:28;13.07;;;7.47;;
44572;SDS011;31762;45.420;10.072;2022-11-15T12:39:12;13.73;;;8.18;;
44572;SDS011;31762;45.420;10.072;2022-11-15T12:43:59;11.02;;;7.53;;
44572;SDS011;31762;45.420;10.072;2022-11-15T12:49:02;11.40;;;7.35;;
44572;SDS011;31762;45.420;10.072;2022-11-15T13:00:36;9.98;;;6.13;;
44572;SDS011;31762;45.420;10.072;2022-11-15T13:04:51;7.33;;;5.77;;
44572;SDS011;31762;45.420;10.072;2022-11-15T13:09:55;9.52;;;6.00;;
44572;SDS011;31762;45.420;10.072;2022-11-15T13:15:01;9.40;;;5.53;;
44572;SDS011;31762;45.420;10.072;2022-11-15T13:30:37;7.75;;;5.70;;
44572;SDS011;31762;45.420;10.072;2022-11-15T13:35:40;8.07;;;6.13;;
44572;SDS011;31762;45.420;10.072;2022-11-15T13:40:44;7.85;;;5.88;;
44572;SDS011;31762;45.420;10.072;2022-11-15T13:45:55;7.13;;;5.03;;
44572;SDS011;31762;45.420;10.072;2022-11-15T13:51:43;6.93;;;5.53;;
44572;SDS011;31762;45.420;10.072;2022-11-15T13:56:57;7.55;;;5.88;;
44572;SDS011;31762;45.420;10.072;2022-11-15T14:02:14;8.95;;;5.82;;
44572;SDS011;31762;45.420;10.072;2022-11-15T14:07:25;6.43;;;5.28;;
44572;SDS011;31762;45.420;10.072;2022-11-15T14:12:32;9.63;;;6.22;;
44572;SDS011;31762;45.420;10.072;2022-11-15T14:17:36;5.95;;;4.90;;
44572;SDS011;31762;45.420;10.072;2022-11-15T14:22:39;7.82;;;5.13;;
44572;SDS011;31762;45.420;10.072;2022-11-15T14:28:09;6.85;;;4.88;;
44572;SDS011;31762;45.420;10.072;2022-11-15T14:33:33;6.63;;;4.75;;
44572;SDS011;31762;45.420;10.072;2022-11-15T14:38:36;5.70;;;4.57;;
44572;SDS011;31762;45.420;10.072;2022-11-15T14:43:38;5.95;;;4.78;;
44572;SDS011;31762;45.420;10.072;2022-11-15T14:48:40;6.23;;;4.20;;
44572;SDS011;31762;45.420;10.072;2022-11-15T14:53:42;6.40;;;4.40;;
44572;SDS011;31762;45.420;10.072;2022-11-15T14:58:44;7.13;;;5.25;;
44572;SDS011;31762;45.420;10.072;2022-11-15T15:03:46;6.07;;;4.60;;
44572;SDS011;31762;45.420;10.072;2022-11-15T15:08:48;5.93;;;4.05;;
44572;SDS011;31762;45.420;10.072;2022-11-15T15:13:50;5.53;;;4.07;;
44572;SDS011;31762;45.420;10.072;2022-11-15T15:18:52;5.33;;;4.27;;
44572;SDS011;31762;45.420;10.072;2022-11-15T15:23:54;6.70;;;5.07;;
44572;SDS011;31762;45.420;10.072;2022-11-15T15:28:55;5.85;;;4.68;;
44572;SDS011;31762;45.420;10.072;2022-11-15T15:33:57;5.40;;;4.30;;
44572;SDS011;31762;45.420;10.072;2022-11-15T15:38:59;5.57;;;4.80;;
44572;SDS011;31762;45.420;10.072;2022-11-15T15:44:00;6.75;;;4.97;;
44572;SDS011;31762;45.420;10.072;2022-11-15T15:49:02;7.57;;;5.10;;
44572;SDS011;31762;45.420;10.072;2022-11-15T15:54:04;6.13;;;4.20;;
44572;SDS011;31762;45.420;10.072;2022-11-15T15:59:06;5.38;;;4.55;;
44572;SDS011;31762;45.420;10.072;2022-11-15T16:04:08;7.10;;;5.60;;
44572;SDS011;31762;45.420;10.072;2022-11-15T16:09:16;6.50;;;5.05;;
44572;SDS011;31762;45.420;10.072;2022-11-15T16:14:20;7.70;;;5.43;;
44572;SDS011;31762;45.420;10.072;2022-11-15T16:19:22;7.25;;;4.72;;
44572;SDS011;31762;45.420;10.072;2022-11-15T16:24:24;8.80;;;5.85;;
44572;SDS011;31762;45.420;10.072;2022-11-15T16:29:25;12.03;;;6.00;;
44572;SDS011;31762;45.420;10.072;2022-11-15T16:34:27;7.60;;;5.93;;
44572;SDS011;31762;45.420;10.072;2022-11-15T16:39:34;8.60;;;5.80;;
44572;SDS011;31762;45.420;10.072;2022-11-15T16:44:35;9.45;;;7.18;;
44572;SDS011;31762;45.420;10.072;2022-11-15T16:49:37;9.23;;;7.05;;
44572;SDS011;31762;45.420;10.072;2022-11-15T16:54:43;7.53;;;6.55;;
44572;SDS011;31762;45.420;10.072;2022-11-15T16:59:45;8.30;;;6.40;;
44572;SDS011;31762;45.420;10.072;2022-11-15T17:04:47;7.00;;;5.53;;
44572;SDS011;31762;45.420;10.072;2022-11-15T17:09:48;6.63;;;5.43;;
44572;SDS011;31762;45.420;10.072;2022-11-15T17:14:50;8.77;;;5.75;;
44572;SDS011;31762;45.420;10.072;2022-11-15T17:19:52;7.80;;;6.03;;
44572;SDS011;31762;45.420;10.072;2022-11-15T17:24:54;7.70;;;5.80;;
44572;SDS011;31762;45.420;10.072;2022-11-15T17:29:56;8.13;;;6.53;;
44572;SDS011;31762;45.420;10.072;2022-11-15T17:34:58;13.73;;;7.57;;
44572;SDS011;31762;45.420;10.072;2022-11-15T17:40:00;7.70;;;5.60;;
44572;SDS011;31762;45.420;10.072;2022-11-15T17:45:02;6.05;;;5.18;;
44572;SDS011;31762;45.420;10.072;2022-11-15T17:50:09;6.93;;;4.67;;
44572;SDS011;31762;45.420;10.072;2022-11-15T17:55:11;7.80;;;4.80;;
44572;SDS011;31762;45.420;10.072;2022-11-15T18:00:13;8.73;;;6.35;;
44572;SDS011;31762;45.420;10.072;2022-11-15T18:05:15;7.45;;;5.68;;
44572;SDS011;31762;45.420;10.072;2022-11-15T18:10:17;9.23;;;7.17;;
44572;SDS011;31762;45.420;10.072;2022-11-15T18:15:19;8.37;;;6.20;;
44572;SDS011;31762;45.420;10.072;2022-11-15T18:20:21;9.75;;;6.70;;
44572;SDS011;31762;45.420;10.072;2022-11-15T18:25:29;12.85;;;8.43;;
44572;SDS011;31762;45.420;10.072;2022-11-15T18:30:30;10.10;;;7.93;;
44572;SDS011;31762;45.420;10.072;2022-11-15T18:35:32;9.60;;;6.13;;
44572;SDS011;31762;45.420;10.072;2022-11-15T18:40:34;9.85;;;7.60;;
44572;SDS011;31762;45.420;10.072;2022-11-15T18:45:36;9.27;;;6.70;;
44572;SDS011;31762;45.420;10.072;2022-11-15T18:50:37;8.63;;;6.80;;
44572;SDS011;31762;45.420;10.072;2022-11-15T18:55:39;7.53;;;5.82;;
44572;SDS011;31762;45.420;10.072;2022-11-15T19:00:41;8.05;;;5.57;;
44572;SDS011;31762;45.420;10.072;2022-11-15T19:05:43;8.77;;;5.47;;
44572;SDS011;31762;45.420;10.072;2022-11-15T19:10:44;8.30;;;5.90;;
44572;SDS011;31762;45.420;10.072;2022-11-15T19:15:46;5.97;;;4.33;;
44572;SDS011;31762;45.420;10.072;2022-11-15T19:20:48;6.03;;;4.97;;
44572;SDS011;31762;45.420;10.072;2022-11-15T19:25:56;8.30;;;4.30;;
44572;SDS011;31762;45.420;10.072;2022-11-15T19:31:26;4.57;;;3.97;;
44572;SDS011;31762;45.420;10.072;2022-11-15T19:36:33;6.60;;;3.45;;
44572;SDS011;31762;45.420;10.072;2022-11-15T19:41:38;4.93;;;4.07;;
44572;SDS011;31762;45.420;10.072;2022-11-15T19:47:04;6.43;;;4.05;;
44572;SDS011;31762;45.420;10.072;2022-11-15T19:52:31;3.83;;;2.97;;
44572;SDS011;31762;45.420;10.072;2022-11-15T19:57:32;5.07;;;3.50;;
44572;SDS011;31762;45.420;10.072;2022-11-15T20:02:38;4.80;;;3.85;;
44572;SDS011;31762;45.420;10.072;2022-11-15T20:07:42;5.85;;;3.42;;
44572;SDS011;31762;45.420;10.072;2022-11-15T20:18:34;4.80;;;4.00;;
44572;SDS011;31762;45.420;10.072;2022-11-15T20:23:36;7.18;;;4.82;;
44572;SDS011;31762;45.420;10.072;2022-11-15T20:28:39;6.38;;;3.80;;
44572;SDS011;31762;45.420;10.072;2022-11-15T20:33:42;5.33;;;4.00;;
44572;SDS011;31762;45.420;10.072;2022-11-15T20:38:43;6.22;;;4.50;;
44572;SDS011;31762;45.420;10.072;2022-11-15T20:43:45;5.88;;;4.97;;
44572;SDS011;31762;45.420;10.072;2022-11-15T20:48:47;6.67;;;5.47;;
44572;SDS011;31762;45.420;10.072;2022-11-15T20:53:49;7.37;;;4.60;;
44572;SDS011;31762;45.420;10.072;2022-11-15T20:58:51;8.15;;;4.70;;
44572;SDS011;31762;45.420;10.072;2022-11-15T21:03:53;7.53;;;5.93;;
44572;SDS011;31762;45.420;10.072;2022-11-15T21:08:55;10.82;;;6.72;;
44572;SDS011;31762;45.420;10.072;2022-11-15T21:13:57;7.80;;;5.90;;
44572;SDS011;31762;45.420;10.072;2022-11-15T21:18:59;9.18;;;7.10;;
44572;SDS011;31762;45.420;10.072;2022-11-15T21:24:02;8.20;;;6.80;;
44572;SDS011;31762;45.420;10.072;2022-11-15T21:29:04;9.67;;;7.23;;
44572;SDS011;31762;45.420;10.072;2022-11-15T21:34:06;9.15;;;6.35;;
44572;SDS011;31762;45.420;10.072;2022-11-15T21:39:08;10.25;;;7.03;;
44572;SDS011;31762;45.420;10.072;2022-11-15T21:44:10;10.87;;;6.87;;
44572;SDS011;31762;45.420;10.072;2022-11-15T21:49:11;11.07;;;6.93;;
44572;SDS011;31762;45.420;10.072;2022-11-15T21:54:13;8.77;;;7.28;;
44572;SDS011;31762;45.420;10.072;2022-11-15T21:59:15;9.07;;;6.67;;
44572;SDS011;31762;45.420;10.072;2022-11-15T22:04:17;8.13;;;6.68;;
44572;SDS011;31762;45.420;10.072;2022-11-15T22:09:19;8.38;;;6.22;;
44572;SDS011;31762;45.420;10.072;2022-11-15T22:14:20;11.15;;;6.90;;
44572;SDS011;31762;45.420;10.072;2022-11-15T22:19:22;10.93;;;6.97;;
44572;SDS011;31762;45.420;10.072;2022-11-15T22:24:24;9.20;;;6.72;;
44572;SDS011;31762;45.420;10.072;2022-11-15T22:29:26;8.70;;;6.13;;
44572;SDS011;31762;45.420;10.072;2022-11-15T22:34:27;11.25;;;7.78;;
44572;SDS011;31762;45.420;10.072;2022-11-15T22:39:29;9.13;;;7.03;;
44572;SDS011;31762;45.420;10.072;2022-11-15T22:44:31;10.20;;;7.97;;
44572;SDS011;31762;45.420;10.072;2022-11-15T22:49:32;8.65;;;6.32;;
44572;SDS011;31762;45.420;10.072;2022-11-15T22:54:34;8.73;;;6.53;;
44572;SDS011;31762;45.420;10.072;2022-11-15T22:59:36;9.70;;;6.77;;
44572;SDS011;31762;45.420;10.072;2022-11-15T23:04:38;8.25;;;6.28;;
44572;SDS011;31762;45.420;10.072;2022-11-15T23:09:39;9.07;;;6.32;;
44572;SDS011;31762;45.420;10.072;2022-11-15T23:14:41;9.63;;;6.78;;
44572;SDS011;31762;45.420;10.072;2022-11-15T23:19:43;9.00;;;6.18;;
44572;SDS011;31762;45.420;10.072;2022-11-15T23:24:45;7.97;;;6.57;;
44572;SDS011;31762;45.420;10.072;2022-11-15T23:29:46;9.13;;;5.97;;
44572;SDS011;31762;45.420;10.072;2022-11-15T23:34:48;8.02;;;5.93;;
44572;SDS011;31762;45.420;10.072;2022-11-15T23:39:50;8.73;;;6.47;;
44572;SDS011;31762;45.420;10.072;2022-11-15T23:44:52;8.57;;;6.43;;
44572;SDS011;31762;45.420;10.072;2022-11-15T23:49:54;9.15;;;5.93;;
44572;SDS011;31762;45.420;10.072;2022-11-15T23:54:55;7.10;;;5.53;;
44572;SDS011;31762;45.420;10.072;2022-11-15T23:59:57;7.88;;;5.25;;
